« 空旅 ANA1181富山-新千歳 2018/7/20 fri | トップページ | ### RJNT log 201807 ### »

2018/07/30

定点+ 富山空港 2018/7/30 mon

史上稀なる動きをしている台風12号の被害は無く、また熱い日(暑いじゃ表現できん)が続いています。

RJNT 292300Z VRB03KT 9999 FEW040 30/21 Q1007

20180730_rjnt_00iwase

青い海ですが、まだ流木の着岸が多く、毎日撤去が続いているようです。

20180730_rjnt_01ja63an

上空高くに・・

20180730_rjnt_02ja63an

ANA313 RJTT-RJNT JA63AN B737-881

RJNT 300000Z 12004KT 040V160 9999 FEW040 31/21 Q1007

20180730_rjnt_03ddh181

伏木港の「ひゅうが」がまだいたと思って、出港を見ようかと・・ 新湊大橋の上で、出港が見えて・・

20180730_rjnt_04nihonkai

「日本海」も帰ってきた

20180730_rjnt_05ddh181

海王丸パークのお立ち台から、かろうじて見送りました。

20180730_rjnt_06ja844a

ANA1281 RJFF-RJSN JA844A DHC8-402Q

20180730_rjnt_07pl04

やひこさんでは、なにやら潜水訓練中

RJNT 300100Z VRB04KT 9999 FEW030 33/22 Q1006

20180730_rjnt_08ja62an

RNAV02

20180730_rjnt_09ja62an

20180730_rjnt_10ja62an

ANA315 RJTT-RJNT JA62AN B737-881

RJNT 300200Z 36009KT 330V040 9999 FEW030 34/22 Q1006

20180730_rjnt_11ja023b

JA023B AS350B3 AKF

新潟から福井までフェリーの模様で、直上通過

20180730_rjnt_12ja62an

また北海道に行きたいなぁ

20180730_rjnt_13b18652

20180730_rjnt_14b18652

CAL170 RCTP-RJNT B-18652 B737-8Q8

20180730_rjnt_15ja62an

20180730_rjnt_16ja62an

ANA1181 RJNT-RJCC JA62AN B737-881

RJNT 300300Z 01010KT 340V050 9999 FEW030 BKN/// 35/22 Q1006

20180730_rjnt_17lantan

ターミナル2Fでは、台湾ランタン展

20180730_rjnt_18b18652

20180730_rjnt_19b18652

CAL171 RJNT-RCTP B-18652 B737-8Q8

RJNT 300400Z 02011KT 330V060 9999 FEW030 BKN/// 33/23 Q1006

20180730_rjnt_20ja9690

JA9690 AS332L AKF

お昼過ぎにやってきた

|

« 空旅 ANA1181富山-新千歳 2018/7/20 fri | トップページ | ### RJNT log 201807 ### »

海上自衛隊」カテゴリの記事

海上保安庁」カテゴリの記事

コメント

コメントを書く



(ウェブ上には掲載しません)


コメントは記事投稿者が公開するまで表示されません。



トラックバック


この記事へのトラックバック一覧です: 定点+ 富山空港 2018/7/30 mon:

« 空旅 ANA1181富山-新千歳 2018/7/20 fri | トップページ | ### RJNT log 201807 ### »